Alberton, Canada
Current Conditions -  °F | °C
As of 1:00 PM on Saturday 25 Oct 2014 (Local Time) from CYQM Reporting Station
Drizzle Drizzle  
Wind Chill: 40°   Ceiling: 700
Heat Index: 46°   Visibility: 2mi
Dew Point: 45°   Wind: 14mph
Humidity: 93%   Direction: 340°NNW
Pressure: 29.51"   Gusts: NA
Location:  46.8°N, 64.07°W
Report Text: CYQM 251600Z 34012KT 2SM -DZ BR OVC007 08/07 A2951 RMK SF8 SLP995
Loading
Personal Weather Stations






























Interactive Weather Map
Tropical Storm Tracking
New forecast layout! Learn more

10-Day Weather Forecast

Advertisements
Track Severe Weather on mobile